Time;durP1;ratioP1;P1;durP2;ratioP2;P2;SDS_P1;SDS_P2;PMS_P1;PMS_P2;Temp;Humidity;BMP_temperature;BMP_pressure;BME280_temperature;BME280_humidity;BME280_pressure;Samples;Min_cycle;Max_cycle;Signal;HPM_P1;HPM_P2
2022/12/07 00:00:49;;;;;;;27.42;19.25;;;7.50;99.90;;;;;;5064774;28;20025;-79
2022/12/07 00:03:15;;;;;;;23.20;18.88;;;7.40;99.90;;;;;;5076309;28;20035;-79
2022/12/07 00:05:41;;;;;;;29.88;19.60;;;7.40;99.90;;;;;;5062814;28;20033;-79
2022/12/07 00:08:06;;;;;;;20.52;15.15;;;7.40;99.90;;;;;;5076334;28;20028;-79
2022/12/07 00:10:34;;;;;;;23.80;16.02;;;7.30;99.90;;;;;;5067765;28;20389;-79
2022/12/07 00:13:00;;;;;;;21.02;15.13;;;7.30;99.90;;;;;;5078854;28;20036;-80
2022/12/07 00:15:25;;;;;;;21.90;16.08;;;7.40;99.90;;;;;;5070304;28;20404;-79
2022/12/07 00:17:51;;;;;;;23.13;13.55;;;7.40;99.90;;;;;;5071170;28;20554;-79
2022/12/07 00:20:17;;;;;;;18.25;13.77;;;7.40;99.90;;;;;;5075307;28;20098;-80
2022/12/07 00:22:43;;;;;;;14.35;12.00;;;7.30;99.90;;;;;;5072150;28;20023;-80
2022/12/07 00:25:09;;;;;;;17.10;12.77;;;7.30;99.90;;;;;;5071432;28;20049;-79
2022/12/07 00:27:35;;;;;;;14.48;11.77;;;7.30;99.90;;;;;;5073188;28;20055;-79
2022/12/07 00:30:00;;;;;;;18.80;12.50;;;7.30;99.90;;;;;;5059044;28;20128;-80
2022/12/07 00:32:26;;;;;;;15.63;12.93;;;7.30;99.90;;;;;;5077105;28;20036;-79
2022/12/07 00:34:52;;;;;;;18.45;12.85;;;7.40;99.90;;;;;;5062665;28;20029;-80
2022/12/07 00:37:18;;;;;;;14.85;11.40;;;7.40;99.90;;;;;;5068682;28;20032;-79
2022/12/07 00:39:46;;;;;;;17.42;12.75;;;7.40;99.90;;;;;;5063265;28;20171;-80
2022/12/07 00:42:12;;;;;;;19.52;14.55;;;7.40;99.90;;;;;;5071676;28;20017;-80
2022/12/07 00:44:37;;;;;;;19.80;13.30;;;7.40;99.90;;;;;;5072623;28;20039;-79
2022/12/07 00:47:04;;;;;;;25.30;16.13;;;7.40;99.90;;;;;;5065422;28;20029;-79
2022/12/07 00:49:29;;;;;;;27.23;18.63;;;7.40;99.90;;;;;;5071467;28;20035;-79
2022/12/07 00:51:55;;;;;;;23.08;16.48;;;7.40;99.90;;;;;;5072169;28;20489;-79
2022/12/07 00:54:21;;;;;;;28.65;16.60;;;7.40;99.90;;;;;;5070116;28;20025;-79
2022/12/07 00:56:47;;;;;;;21.42;14.63;;;7.40;99.90;;;;;;5070188;28;20096;-79
2022/12/07 00:59:14;;;;;;;20.50;15.27;;;7.40;99.90;;;;;;5071334;28;20137;-79
2022/12/07 01:01:40;;;;;;;16.80;13.32;;;7.40;99.90;;;;;;5069080;28;20024;-79
2022/12/07 01:04:06;;;;;;;15.43;12.18;;;7.40;99.90;;;;;;5065564;28;20033;-79
2022/12/07 01:06:32;;;;;;;14.05;10.52;;;7.40;99.90;;;;;;5066071;28;20042;-79
2022/12/07 01:08:58;;;;;;;15.25;11.52;;;7.30;99.90;;;;;;5068544;28;20017;-79
2022/12/07 01:11:27;;;;;;;12.63;9.48;;;7.30;99.90;;;;;;5069781;28;20025;-79
2022/12/07 01:13:55;;;;;;;13.60;9.65;;;7.20;99.90;;;;;;5066431;28;20031;-79
2022/12/07 01:16:23;;;;;;;12.60;9.02;;;7.20;99.90;;;;;;5062759;28;20028;-79
2022/12/07 01:18:51;;;;;;;14.20;10.55;;;7.20;99.90;;;;;;5064267;28;20461;-79
2022/12/07 01:21:23;;;;;;;14.20;10.95;;;7.20;99.90;;;;;;5062938;28;20049;-79
2022/12/07 01:23:50;;;;;;;16.27;11.32;;;7.20;99.90;;;;;;5072798;28;20158;-79
2022/12/07 01:26:18;;;;;;;15.95;11.80;;;7.20;99.90;;;;;;5068520;28;20051;-80
2022/12/07 01:28:45;;;;;;;17.05;12.25;;;7.10;99.90;;;;;;5071426;28;20021;-79
2022/12/07 01:31:15;;;;;;;17.10;12.63;;;7.10;99.90;;;;;;5071879;28;20519;-79
2022/12/07 01:33:42;;;;;;;18.23;12.70;;;7.10;99.90;;;;;;5074262;28;20052;-79
2022/12/07 01:36:43;;;;;;;15.00;12.18;;;7.10;99.90;;;;;;5061394;28;20051;-79
2022/12/07 01:39:10;;;;;;;13.82;11.27;;;7.00;99.90;;;;;;5067652;28;20031;-80
2022/12/07 01:41:43;;;;;;;15.98;11.98;;;7.00;99.90;;;;;;5067259;28;20127;-79
2022/12/07 01:44:15;;;;;;;17.50;12.00;;;7.00;99.90;;;;;;5069920;28;20035;-79
2022/12/07 01:46:43;;;;;;;15.70;11.07;;;7.00;99.90;;;;;;5082709;28;20035;-79
2022/12/07 01:49:19;;;;;;;14.13;10.40;;;7.00;99.90;;;;;;5068927;28;20029;-79
2022/12/07 01:51:46;;;;;;;13.90;11.07;;;7.00;99.90;;;;;;5085312;28;20033;-80
2022/12/07 01:54:14;;;;;;;12.48;10.02;;;7.00;99.90;;;;;;5064382;28;20036;-79
2022/12/07 01:56:44;;;;;;;11.50;9.75;;;7.00;99.90;;;;;;5085448;28;20115;-80
2022/12/07 01:59:10;;;;;;;13.88;10.13;;;7.00;99.90;;;;;;5063248;28;20043;-79
2022/12/07 02:01:35;;;;;;;12.43;9.65;;;7.00;99.90;;;;;;5067931;28;20028;-79
2022/12/07 02:04:02;;;;;;;12.55;10.38;;;6.90;99.90;;;;;;5069572;28;20028;-79
2022/12/07 02:06:28;;;;;;;17.75;11.90;;;6.90;99.90;;;;;;5064424;28;20429;-79
2022/12/07 02:08:54;;;;;;;14.95;10.68;;;6.90;99.90;;;;;;5069476;28;20017;-79
2022/12/07 02:11:21;;;;;;;14.80;11.43;;;6.90;99.90;;;;;;5070038;28;20032;-79
2022/12/07 02:13:47;;;;;;;14.75;10.80;;;6.80;99.90;;;;;;5064391;28;20434;-79
2022/12/07 02:16:34;;;;;;;17.35;11.52;;;6.80;99.90;;;;;;5064754;28;20028;-79
2022/12/07 02:19:36;;;;;;;13.20;9.95;;;6.80;99.90;;;;;;5064769;28;20050;-79
2022/12/07 02:22:41;;;;;;;12.95;9.50;;;6.80;99.90;;;;;;5061818;28;20035;-79
2022/12/07 02:25:42;;;;;;;21.10;10.27;;;6.80;99.90;;;;;;5073022;28;20048;-79
2022/12/07 02:28:23;;;;;;;11.60;9.68;;;6.80;99.90;;;;;;5060432;28;20501;-79
2022/12/07 02:30:51;;;;;;;12.82;9.55;;;6.80;99.90;;;;;;5064671;28;20020;-79
2022/12/07 02:33:28;;;;;;;13.35;10.10;;;6.80;99.90;;;;;;5074887;28;20032;-79
2022/12/07 02:36:11;;;;;;;13.38;9.40;;;6.80;99.90;;;;;;5069685;28;20032;-79
2022/12/07 02:38:45;;;;;;;15.48;11.02;;;6.80;99.90;;;;;;5063878;28;20024;-79
2022/12/07 02:41:24;;;;;;;12.95;10.43;;;6.80;99.90;;;;;;5063353;28;20029;-79
2022/12/07 02:43:56;;;;;;;14.13;9.85;;;6.80;99.90;;;;;;5062767;28;20067;-79
2022/12/07 02:46:28;;;;;;;11.77;10.35;;;6.80;99.90;;;;;;5067758;28;20024;-79
2022/12/07 02:48:55;;;;;;;14.65;10.52;;;6.80;99.90;;;;;;5061250;28;20040;-79
2022/12/07 02:51:22;;;;;;;13.32;10.27;;;6.80;99.90;;;;;;5066295;28;20099;-79
2022/12/07 02:53:48;;;;;;;15.30;10.63;;;6.70;99.90;;;;;;5071855;28;20031;-79
2022/12/07 02:56:39;;;;;;;12.32;10.52;;;6.80;99.90;;;;;;5068145;28;20017;-79
2022/12/07 02:59:29;;;;;;;16.67;11.68;;;6.80;99.90;;;;;;5069876;28;20025;-79
2022/12/07 03:01:55;;;;;;;15.10;12.70;;;6.80;99.90;;;;;;5064520;28;20052;-79
2022/12/07 03:04:37;;;;;;;14.88;12.68;;;6.80;99.90;;;;;;5074275;28;20029;-79
2022/12/07 03:07:25;;;;;;;22.67;14.80;;;6.80;99.90;;;;;;5089290;28;20039;-79
2022/12/07 03:10:09;;;;;;;20.33;14.55;;;6.80;99.90;;;;;;5064249;28;20017;-79
2022/12/07 03:12:55;;;;;;;22.58;15.68;;;6.80;99.90;;;;;;5074433;28;20036;-79
2022/12/07 03:15:49;;;;;;;24.98;16.95;;;6.80;99.90;;;;;;5062404;28;20051;-79
2022/12/07 03:18:19;;;;;;;24.92;16.50;;;6.80;99.90;;;;;;5069668;28;20052;-79
2022/12/07 03:20:48;;;;;;;27.05;19.48;;;6.80;99.90;;;;;;5066671;28;20021;-79
2022/12/07 03:23:16;;;;;;;31.25;20.88;;;6.80;99.90;;;;;;5071102;28;20130;-79
2022/12/07 03:25:47;;;;;;;24.15;19.42;;;6.80;99.90;;;;;;5068280;28;20045;-79
2022/12/07 03:28:18;;;;;;;26.27;18.27;;;6.90;99.90;;;;;;5063140;28;20036;-79
2022/12/07 03:30:57;;;;;;;23.58;18.85;;;6.80;99.90;;;;;;5061517;28;20028;-79
2022/12/07 03:33:26;;;;;;;24.52;18.10;;;6.90;99.90;;;;;;5073443;28;20060;-79
2022/12/07 03:36:04;;;;;;;25.77;19.07;;;6.90;99.90;;;;;;5071066;28;20037;-79
2022/12/07 03:38:37;;;;;;;26.30;19.02;;;6.90;99.90;;;;;;5067129;28;20277;-79
2022/12/07 03:41:23;;;;;;;26.95;19.27;;;6.90;99.90;;;;;;5065076;28;20057;-79
2022/12/07 03:43:49;;;;;;;25.58;18.20;;;6.90;99.90;;;;;;5072592;28;20043;-79
2022/12/07 03:46:43;;;;;;;26.73;19.20;;;6.90;99.90;;;;;;5068913;28;20119;-79
2022/12/07 03:49:23;;;;;;;25.77;19.23;;;6.90;99.90;;;;;;5065992;28;20076;-79
2022/12/07 03:51:55;;;;;;;34.43;21.50;;;6.90;99.90;;;;;;5075419;28;20028;-79
2022/12/07 03:54:28;;;;;;;28.60;21.02;;;6.90;99.90;;;;;;5064219;28;20056;-79
2022/12/07 03:56:55;;;;;;;31.35;21.23;;;6.90;99.90;;;;;;5070306;28;20017;-79
2022/12/07 03:59:22;;;;;;;27.30;20.67;;;6.90;99.90;;;;;;5070071;28;20083;-78
2022/12/07 04:01:56;;;;;;;28.13;20.08;;;6.90;99.90;;;;;;5075484;28;20025;-79
2022/12/07 04:04:24;;;;;;;30.42;20.08;;;6.90;99.90;;;;;;5068899;28;20068;-80
2022/12/07 04:06:50;;;;;;;27.83;20.75;;;6.90;99.90;;;;;;5068315;28;20016;-79
2022/12/07 04:09:16;;;;;;;26.95;17.92;;;6.90;99.90;;;;;;5079324;28;20182;-79
2022/12/07 04:11:42;;;;;;;25.55;18.58;;;6.90;99.90;;;;;;5071641;28;20033;-79
2022/12/07 04:14:20;;;;;;;26.10;19.25;;;6.90;99.90;;;;;;5076501;28;20024;-79
2022/12/07 04:16:48;;;;;;;25.42;18.63;;;6.90;99.90;;;;;;5069694;28;20081;-79
2022/12/07 04:19:15;;;;;;;22.92;18.15;;;6.90;99.90;;;;;;5074531;28;20013;-79
2022/12/07 04:21:41;;;;;;;22.33;16.88;;;6.90;99.90;;;;;;5070022;28;20028;-79
2022/12/07 04:24:07;;;;;;;25.33;16.73;;;6.90;99.90;;;;;;5072895;28;20023;-79
2022/12/07 04:26:33;;;;;;;20.02;16.67;;;6.90;99.90;;;;;;5065259;28;20084;-79
2022/12/07 04:28:59;;;;;;;20.95;15.73;;;6.90;99.90;;;;;;5068092;28;20017;-79
2022/12/07 04:31:24;;;;;;;21.15;15.60;;;6.90;99.90;;;;;;5068872;28;20044;-79
2022/12/07 04:33:50;;;;;;;23.70;15.68;;;6.90;99.90;;;;;;5064092;28;20031;-79
2022/12/07 04:36:16;;;;;;;22.63;15.18;;;6.90;99.90;;;;;;5065091;28;20451;-79
2022/12/07 04:38:42;;;;;;;21.80;15.23;;;6.90;99.90;;;;;;5060170;28;20096;-79
2022/12/07 04:41:09;;;;;;;19.55;15.10;;;6.90;99.90;;;;;;5065204;28;20059;-79
2022/12/07 04:43:35;;;;;;;22.05;15.15;;;6.90;99.90;;;;;;5072550;28;20021;-79
2022/12/07 04:46:01;;;;;;;21.58;15.35;;;6.90;99.90;;;;;;5066977;28;20036;-79
2022/12/07 04:48:27;;;;;;;19.88;15.10;;;6.90;99.90;;;;;;5073789;28;20374;-79
2022/12/07 04:50:54;;;;;;;19.58;14.43;;;6.90;99.90;;;;;;5068609;28;20044;-79
2022/12/07 04:53:19;;;;;;;23.42;15.57;;;6.90;99.90;;;;;;5073851;28;20017;-79
2022/12/07 04:55:46;;;;;;;20.95;16.30;;;6.90;99.90;;;;;;5066957;28;20036;-79
2022/12/07 04:58:13;;;;;;;22.92;15.60;;;6.90;99.90;;;;;;5074491;28;20013;-79
2022/12/07 05:00:39;;;;;;;17.45;15.20;;;6.90;99.90;;;;;;5066406;28;20056;-79
2022/12/07 05:03:05;;;;;;;22.17;16.23;;;6.90;99.90;;;;;;5075595;28;20369;-79
2022/12/07 05:05:31;;;;;;;22.10;15.52;;;6.90;99.90;;;;;;5064684;28;20858;-80
2022/12/07 05:07:57;;;;;;;20.80;15.77;;;6.90;99.90;;;;;;5058411;28;20045;-79
2022/12/07 05:10:23;;;;;;;20.75;15.90;;;7.00;99.90;;;;;;5070898;28;20071;-80
2022/12/07 05:12:49;;;;;;;19.48;15.60;;;7.00;99.90;;;;;;5076763;28;20496;-79
2022/12/07 05:15:16;;;;;;;24.15;16.15;;;7.00;99.90;;;;;;5072346;28;20040;-80
2022/12/07 05:17:42;;;;;;;20.33;15.50;;;7.00;99.90;;;;;;5071481;28;20497;-79
2022/12/07 05:20:09;;;;;;;23.30;16.95;;;7.00;99.90;;;;;;5069577;28;20078;-79
2022/12/07 05:22:35;;;;;;;26.92;16.55;;;7.00;99.90;;;;;;5065663;28;20017;-79
2022/12/07 05:25:01;;;;;;;22.45;16.33;;;7.00;99.90;;;;;;5063333;28;20052;-79
2022/12/07 05:27:27;;;;;;;21.85;17.08;;;7.00;99.90;;;;;;5072693;28;20008;-79
2022/12/07 05:29:53;;;;;;;22.10;16.02;;;7.00;99.90;;;;;;5068550;28;20059;-79
2022/12/07 05:32:19;;;;;;;23.55;16.30;;;7.00;99.90;;;;;;5071784;28;20100;-79
2022/12/07 05:34:45;;;;;;;20.05;15.52;;;7.00;99.90;;;;;;5070740;28;20158;-79
2022/12/07 05:37:11;;;;;;;22.60;14.93;;;7.00;99.90;;;;;;5071573;28;20021;-79
2022/12/07 05:39:40;;;;;;;22.67;16.50;;;7.00;99.90;;;;;;5059941;28;20021;-79
2022/12/07 05:42:12;;;;;;;19.98;16.38;;;7.00;99.90;;;;;;5063867;28;20043;-79
2022/12/07 05:44:39;;;;;;;21.45;16.35;;;7.00;99.90;;;;;;5064814;28;20037;-79
2022/12/07 05:47:05;;;;;;;19.65;15.32;;;7.00;99.90;;;;;;5068732;28;20083;-79
2022/12/07 05:49:31;;;;;;;22.92;16.73;;;7.00;99.90;;;;;;5069049;28;20025;-79
2022/12/07 05:51:57;;;;;;;19.20;15.68;;;7.00;99.90;;;;;;5069641;28;20025;-79
2022/12/07 05:54:24;;;;;;;21.75;15.63;;;7.00;99.90;;;;;;5069330;28;20047;-80
2022/12/07 05:56:50;;;;;;;21.67;16.17;;;7.00;99.90;;;;;;5063435;28;20086;-80
2022/12/07 05:59:22;;;;;;;21.75;16.42;;;7.00;99.90;;;;;;5060603;28;20435;-79
2022/12/07 06:01:54;;;;;;;21.00;15.98;;;7.00;99.90;;;;;;5073515;28;20033;-79
2022/12/07 06:04:21;;;;;;;22.20;15.95;;;6.90;99.90;;;;;;5067707;28;20116;-79
2022/12/07 06:06:47;;;;;;;22.55;15.55;;;7.00;99.90;;;;;;5071102;28;20040;-79
2022/12/07 06:09:14;;;;;;;22.10;15.85;;;6.90;99.90;;;;;;5075915;28;20485;-79
2022/12/07 06:14:24;;;;;;;21.35;15.93;;;6.90;99.90;;;;;;5072804;28;20174;-79
2022/12/07 06:16:51;;;;;;;20.42;15.80;;;6.90;99.90;;;;;;5071272;28;20067;-79
2022/12/07 06:19:17;;;;;;;23.92;17.50;;;6.90;99.90;;;;;;5068345;28;20028;-79
2022/12/07 06:21:43;;;;;;;26.00;17.35;;;6.90;99.90;;;;;;5065962;28;20107;-79
2022/12/07 06:24:13;;;;;;;26.13;18.02;;;6.90;99.90;;;;;;5076756;28;20052;-79
2022/12/07 06:26:39;;;;;;;24.98;17.50;;;6.90;99.90;;;;;;5062499;28;20045;-79
2022/12/07 06:29:06;;;;;;;22.08;17.88;;;6.80;99.90;;;;;;5070100;28;20518;-79
2022/12/07 06:31:32;;;;;;;24.20;18.25;;;6.80;99.90;;;;;;5064489;28;20042;-79
2022/12/07 06:34:03;;;;;;;26.48;19.98;;;6.90;99.90;;;;;;5068629;28;20021;-79
2022/12/07 06:36:29;;;;;;;26.05;17.67;;;6.80;99.90;;;;;;5060331;28;20028;-79
2022/12/07 06:38:55;;;;;;;39.42;25.75;;;6.80;99.90;;;;;;5066756;28;20120;-79
2022/12/07 06:41:22;;;;;;;27.83;20.02;;;6.80;99.90;;;;;;5067511;28;20036;-79
2022/12/07 06:43:48;;;;;;;22.45;17.33;;;6.80;99.90;;;;;;5069921;28;20036;-79
2022/12/07 06:46:14;;;;;;;24.85;19.92;;;6.80;99.90;;;;;;5068106;28;20025;-79
2022/12/07 06:48:41;;;;;;;24.67;18.25;;;6.80;99.90;;;;;;5064530;28;20513;-79
2022/12/07 06:51:07;;;;;;;27.73;19.65;;;6.80;99.90;;;;;;5065612;28;20025;-79
2022/12/07 06:53:33;;;;;;;26.38;19.15;;;6.70;99.90;;;;;;5059948;28;20048;-79
2022/12/07 06:55:59;;;;;;;25.20;19.58;;;6.70;99.90;;;;;;5066873;28;20025;-80
2022/12/07 06:58:25;;;;;;;29.73;19.65;;;6.70;99.90;;;;;;5068062;28;20024;-80
2022/12/07 07:00:51;;;;;;;29.38;20.40;;;6.70;99.90;;;;;;5057676;28;20071;-80
2022/12/07 07:03:17;;;;;;;28.02;19.20;;;6.70;99.90;;;;;;5065797;28;20024;-80
2022/12/07 07:05:44;;;;;;;25.40;18.58;;;6.70;99.90;;;;;;5067775;28;20037;-80
2022/12/07 07:08:11;;;;;;;25.98;19.17;;;6.70;99.90;;;;;;5072560;28;20551;-79
2022/12/07 07:10:37;;;;;;;24.42;19.30;;;6.70;99.90;;;;;;5070999;28;20021;-79
2022/12/07 07:13:03;;;;;;;27.33;19.95;;;6.70;99.90;;;;;;5066835;28;20029;-79
2022/12/07 07:15:29;;;;;;;28.38;19.70;;;6.60;99.90;;;;;;5067671;28;20551;-79
2022/12/07 07:17:55;;;;;;;24.95;19.40;;;6.60;99.90;;;;;;5067240;28;20044;-80
2022/12/07 07:20:22;;;;;;;28.58;20.30;;;6.60;99.90;;;;;;5074034;28;20028;-79
2022/12/07 07:22:48;;;;;;;26.08;18.92;;;6.60;99.90;;;;;;5068973;28;20031;-79
2022/12/07 07:25:14;;;;;;;32.50;23.63;;;6.60;99.90;;;;;;5072297;28;20067;-79
2022/12/07 07:27:40;;;;;;;33.47;22.75;;;6.60;99.90;;;;;;5074513;28;20563;-79
2022/12/07 07:30:07;;;;;;;30.17;21.92;;;6.60;99.90;;;;;;5067382;28;20093;-79
2022/12/07 07:32:33;;;;;;;27.20;18.60;;;6.60;99.90;;;;;;5075244;28;20032;-79
2022/12/07 07:34:59;;;;;;;30.83;19.25;;;6.60;99.90;;;;;;5065987;28;20519;-79
2022/12/07 07:37:25;;;;;;;24.88;18.77;;;6.60;99.90;;;;;;5075235;28;20404;-79
2022/12/07 07:39:51;;;;;;;25.90;19.05;;;6.60;99.90;;;;;;5064130;28;20028;-79
2022/12/07 07:42:17;;;;;;;29.13;21.77;;;6.60;99.90;;;;;;5073738;28;20025;-79
2022/12/07 07:44:43;;;;;;;26.00;20.65;;;6.70;99.90;;;;;;5061096;28;20496;-79
2022/12/07 07:47:09;;;;;;;26.67;20.80;;;6.70;99.90;;;;;;5061630;28;20409;-79
2022/12/07 07:49:35;;;;;;;31.88;22.50;;;6.70;99.90;;;;;;5076540;28;20013;-80
2022/12/07 07:52:01;;;;;;;40.05;26.77;;;6.70;99.90;;;;;;5071787;28;20040;-79
2022/12/07 07:54:26;;;;;;;28.40;22.92;;;6.70;99.90;;;;;;5062797;28;20053;-79
2022/12/07 07:56:53;;;;;;;30.55;24.80;;;6.80;99.90;;;;;;5071876;28;20447;-79
2022/12/07 07:59:19;;;;;;;41.60;27.17;;;6.90;99.90;;;;;;5073973;28;20009;-79
2022/12/07 08:01:45;;;;;;;38.17;26.77;;;6.90;99.90;;;;;;5071763;28;20381;-79
2022/12/07 08:04:10;;;;;;;74.30;40.78;;;7.00;99.90;;;;;;5072152;28;20056;-80
2022/12/07 08:06:36;;;;;;;41.95;27.63;;;7.00;99.90;;;;;;5074340;28;20031;-80
2022/12/07 08:09:03;;;;;;;102.03;51.83;;;7.10;99.90;;;;;;5063142;28;20028;-79
2022/12/07 08:11:29;;;;;;;32.50;24.27;;;7.20;99.90;;;;;;5061402;28;20385;-79
2022/12/07 08:13:55;;;;;;;34.38;24.80;;;7.20;99.90;;;;;;5062511;28;20029;-79
2022/12/07 08:16:20;;;;;;;30.70;24.25;;;7.20;99.90;;;;;;5067975;28;20031;-80
2022/12/07 08:18:46;;;;;;;37.75;25.95;;;7.30;99.90;;;;;;5067258;28;20029;-80
2022/12/07 08:21:14;;;;;;;47.00;28.10;;;7.30;99.90;;;;;;5066169;28;20045;-80
2022/12/07 08:23:40;;;;;;;55.40;33.45;;;7.40;99.90;;;;;;5068662;28;20377;-80
2022/12/07 08:26:10;;;;;;;44.15;27.35;;;7.50;99.90;;;;;;5068657;28;20052;-80
2022/12/07 08:28:36;;;;;;;33.75;24.50;;;7.50;99.90;;;;;;5065583;28;20032;-81
2022/12/07 08:31:04;;;;;;;42.88;26.35;;;7.60;99.90;;;;;;5060983;28;20033;-81
2022/12/07 08:33:29;;;;;;;33.67;23.75;;;7.70;99.90;;;;;;5067534;28;20056;-80
2022/12/07 08:36:05;;;;;;;32.03;22.05;;;7.80;99.90;;;;;;5071435;28;20157;-80
2022/12/07 08:38:31;;;;;;;34.53;23.88;;;7.90;99.90;;;;;;5072585;28;20084;-80
2022/12/07 08:40:58;;;;;;;289.25;170.25;;;7.90;99.90;;;;;;5070518;28;20028;-80
2022/12/07 08:43:24;;;;;;;176.70;95.68;;;7.90;99.90;;;;;;5067654;28;20455;-80
2022/12/07 08:46:10;;;;;;;43.72;29.52;;;8.00;99.90;;;;;;5067657;28;20036;-80
2022/12/07 08:48:46;;;;;;;34.50;26.95;;;8.00;99.90;;;;;;5057271;28;20115;-80
2022/12/07 08:51:13;;;;;;;182.10;101.05;;;7.90;99.90;;;;;;5062280;28;20397;-80
2022/12/07 08:53:40;;;;;;;116.60;68.70;;;7.90;99.90;;;;;;5070643;28;20078;-80
2022/12/07 08:56:06;;;;;;;143.10;84.15;;;7.90;99.90;;;;;;5067128;28;20074;-79
2022/12/07 08:58:34;;;;;;;249.38;142.93;;;7.90;99.90;;;;;;5068991;28;20059;-80
2022/12/07 09:01:00;;;;;;;59.08;38.55;;;7.90;99.90;;;;;;5070298;28;20389;-81
2022/12/07 09:03:25;;;;;;;52.53;33.60;;;7.90;99.90;;;;;;5075619;28;20024;-80
2022/12/07 09:05:53;;;;;;;48.58;31.63;;;7.90;99.90;;;;;;5067619;28;20039;-81
2022/12/07 09:08:20;;;;;;;43.88;31.00;;;7.90;99.90;;;;;;5071689;28;20473;-80
2022/12/07 09:10:47;;;;;;;42.78;30.58;;;8.00;99.90;;;;;;5073837;28;20020;-80
2022/12/07 09:13:13;;;;;;;42.30;32.00;;;8.00;99.90;;;;;;5065677;28;20028;-80
2022/12/07 09:15:39;;;;;;;132.57;77.47;;;8.00;99.90;;;;;;5068944;28;20020;-80
2022/12/07 09:18:05;;;;;;;46.50;30.67;;;8.10;99.90;;;;;;5060204;28;20105;-81
2022/12/07 09:20:31;;;;;;;120.55;70.00;;;8.20;99.90;;;;;;5071361;28;20032;-80
2022/12/07 09:22:57;;;;;;;64.13;44.20;;;8.40;99.90;;;;;;5071481;28;20528;-80
2022/12/07 09:25:23;;;;;;;44.67;30.13;;;8.40;99.90;;;;;;5066053;28;20057;-80
2022/12/07 09:27:54;;;;;;;43.60;30.85;;;8.50;99.90;;;;;;5063985;28;20025;-80
2022/12/07 09:30:20;;;;;;;43.08;31.27;;;8.60;99.90;;;;;;5060345;28;20120;-80
2022/12/07 09:32:46;;;;;;;101.93;63.08;;;8.60;99.90;;;;;;5075535;28;20054;-80
2022/12/07 09:35:12;;;;;;;45.42;32.35;;;8.70;99.90;;;;;;5066220;28;20041;-80
2022/12/07 09:37:38;;;;;;;37.33;29.05;;;8.70;99.90;;;;;;5064391;28;20048;-79
2022/12/07 09:40:05;;;;;;;38.80;27.52;;;8.80;99.90;;;;;;5064142;28;20025;-79
2022/12/07 09:42:39;;;;;;;40.38;28.00;;;8.90;99.90;;;;;;5072265;28;20016;-79
2022/12/07 09:45:12;;;;;;;38.13;27.52;;;8.90;99.90;;;;;;5068016;28;20024;-79
2022/12/07 09:47:37;;;;;;;40.38;27.80;;;8.90;99.90;;;;;;5070175;28;20035;-80
2022/12/07 09:50:12;;;;;;;39.38;28.65;;;8.90;99.90;;;;;;5064219;28;20429;-80
2022/12/07 09:52:39;;;;;;;42.05;28.58;;;8.90;99.90;;;;;;5068407;28;20021;-80
2022/12/07 09:55:12;;;;;;;43.00;28.67;;;8.80;99.90;;;;;;5061532;28;20086;-79
2022/12/07 09:57:38;;;;;;;40.03;30.67;;;8.70;99.90;;;;;;5072600;28;20020;-78
2022/12/07 10:00:12;;;;;;;43.25;33.70;;;8.70;99.90;;;;;;5071463;28;20039;-79
2022/12/07 10:02:59;;;;;;;51.75;35.80;;;8.70;99.90;;;;;;5059302;28;20121;-80
2022/12/07 10:05:30;;;;;;;41.63;29.92;;;8.60;99.90;;;;;;5061263;28;20044;-79
2022/12/07 10:07:55;;;;;;;45.28;32.47;;;8.60;99.90;;;;;;5063653;28;20021;-79
2022/12/07 10:10:29;;;;;;;45.60;35.05;;;8.60;99.90;;;;;;5060760;28;20093;-79
2022/12/07 10:13:11;;;;;;;73.35;48.42;;;8.60;99.90;;;;;;5059771;28;20016;-80
2022/12/07 10:15:57;;;;;;;229.20;127.20;;;8.50;99.90;;;;;;5060519;28;20055;-81
2022/12/07 10:18:30;;;;;;;268.90;156.40;;;8.60;99.90;;;;;;5066239;28;20111;-82
2022/12/07 10:21:12;;;;;;;91.57;61.13;;;8.60;99.90;;;;;;5070884;28;20025;-81
2022/12/07 10:24:01;;;;;;;51.72;35.03;;;8.60;99.90;;;;;;5073115;28;20020;-81
2022/12/07 10:26:34;;;;;;;44.88;33.95;;;8.70;99.90;;;;;;5069437;28;20056;-82
2022/12/07 10:29:20;;;;;;;43.95;30.77;;;8.80;99.90;;;;;;5069247;28;20044;-83
2022/12/07 10:32:13;;;;;;;51.53;33.55;;;8.90;99.90;;;;;;5071125;28;20099;-82
2022/12/07 10:34:39;;;;;;;80.25;57.13;;;9.00;99.90;;;;;;5065136;28;20044;-82
2022/12/07 10:37:17;;;;;;;41.97;29.98;;;9.20;99.90;;;;;;5071669;28;20024;-81
2022/12/07 10:39:49;;;;;;;39.10;28.58;;;9.30;99.90;;;;;;5069163;28;20031;-81
2022/12/07 10:42:31;;;;;;;39.53;29.35;;;9.40;99.90;;;;;;5072840;28;20013;-81
2022/12/07 10:45:17;;;;;;;42.92;30.48;;;9.50;99.90;;;;;;5073904;28;20032;-80
2022/12/07 10:48:19;;;;;;;72.95;57.00;;;9.70;99.90;;;;;;5074132;28;20487;-81
2022/12/07 10:50:47;;;;;;;39.22;29.95;;;9.70;99.90;;;;;;5068259;28;20032;-80
2022/12/07 10:53:24;;;;;;;40.38;28.08;;;9.80;99.90;;;;;;5078270;28;20024;-81
2022/12/07 10:56:17;;;;;;;36.88;25.20;;;9.90;99.90;;;;;;5074471;28;20095;-81
2022/12/07 10:59:19;;;;;;;35.25;25.40;;;9.90;99.90;;;;;;5078860;28;20025;-81
2022/12/07 11:01:44;;;;;;;39.95;27.92;;;10.00;99.90;;;;;;5055566;28;20032;-80
2022/12/07 11:04:32;;;;;;;38.38;26.95;;;10.00;99.90;;;;;;5079209;28;20107;-81
2022/12/07 11:07:19;;;;;;;36.25;25.38;;;10.10;99.90;;;;;;5075685;28;20031;-81
2022/12/07 11:09:59;;;;;;;33.80;24.35;;;10.20;99.90;;;;;;5075101;28;20037;-80
2022/12/07 11:12:55;;;;;;;37.80;28.10;;;10.20;99.90;;;;;;5076394;28;20052;-80
2022/12/07 11:15:45;;;;;;;39.13;26.65;;;10.30;99.90;;;;;;5070833;28;20037;-78
2022/12/07 11:18:36;;;;;;;40.78;25.77;;;10.20;99.90;;;;;;5070204;28;20078;-79
2022/12/07 11:21:13;;;;;;;37.25;26.58;;;10.20;99.90;;;;;;5074572;28;20111;-79
2022/12/07 11:23:42;;;;;;;42.25;25.75;;;10.20;99.90;;;;;;5072271;28;20028;-78
2022/12/07 11:26:15;;;;;;;34.08;25.63;;;10.30;99.90;;;;;;5071280;28;20432;-79
2022/12/07 11:29:05;;;;;;;36.38;25.70;;;10.30;99.90;;;;;;5075760;28;20033;-79
2022/12/07 11:31:38;;;;;;;33.22;24.02;;;10.30;99.90;;;;;;5072971;28;20033;-79
2022/12/07 11:34:08;;;;;;;32.10;22.13;;;10.40;99.90;;;;;;5074133;28;20119;-79
2022/12/07 11:36:51;;;;;;;33.97;22.95;;;10.40;99.90;;;;;;5070967;28;20024;-80
2022/12/07 11:39:17;;;;;;;32.67;21.67;;;10.50;99.90;;;;;;5075733;28;20059;-79
2022/12/07 11:41:45;;;;;;;28.15;20.50;;;10.60;99.90;;;;;;5074759;28;20028;-79
2022/12/07 11:44:36;;;;;;;28.83;19.92;;;10.60;99.90;;;;;;5071328;28;20025;-78
2022/12/07 11:47:34;;;;;;;26.83;19.38;;;10.70;99.90;;;;;;5073805;28;20020;-79
2022/12/07 11:50:32;;;;;;;19.63;15.60;;;10.80;99.90;;;;;;5071662;28;20040;-78
2022/12/07 11:52:58;;;;;;;25.35;15.48;;;10.90;99.90;;;;;;5073669;28;20017;-79
2022/12/07 11:55:52;;;;;;;18.67;15.55;;;10.90;99.90;;;;;;5068388;28;20029;-78
2022/12/07 11:58:39;;;;;;;19.13;15.02;;;11.00;99.90;;;;;;5072087;28;20416;-78
2022/12/07 12:01:15;;;;;;;21.00;15.32;;;11.00;99.90;;;;;;5074891;28;20047;-78
2022/12/07 12:03:52;;;;;;;23.42;16.80;;;11.10;99.90;;;;;;5077315;28;20021;-79
2022/12/07 12:06:19;;;;;;;25.38;16.48;;;11.20;99.90;;;;;;5072729;28;20092;-79
2022/12/07 12:08:54;;;;;;;21.08;14.07;;;11.30;99.90;;;;;;5075885;28;20400;-79
2022/12/07 12:11:32;;;;;;;19.27;14.23;;;11.40;99.90;;;;;;5068694;28;20029;-79
2022/12/07 12:14:03;;;;;;;19.88;12.45;;;11.40;99.90;;;;;;5077580;28;20020;-76
2022/12/07 12:16:47;;;;;;;19.50;14.10;;;11.40;99.90;;;;;;5074923;28;20495;-78
2022/12/07 12:19:48;;;;;;;16.85;12.88;;;11.50;99.90;;;;;;5075566;28;20051;-77
2022/12/07 12:22:19;;;;;;;14.75;12.63;;;11.50;99.90;;;;;;4999494;28;20026;-77
2022/12/07 12:24:48;;;;;;;;;;;11.60;99.90;;;;;;5059615;28;20063;-77
2022/12/07 12:27:48;;;;;;;20.25;13.38;;;11.50;99.90;;;;;;5073730;28;19909;-78
2022/12/07 12:30:35;;;;;;;19.98;13.02;;;11.50;99.90;;;;;;5058842;28;20123;-78
2022/12/07 12:33:14;;;;;;;16.98;12.38;;;11.50;99.90;;;;;;5071592;28;20077;-79
2022/12/07 12:35:41;;;;;;;16.85;11.88;;;11.60;99.90;;;;;;5065651;28;20028;-77
2022/12/07 12:38:22;;;;;;;16.27;12.07;;;11.60;99.90;;;;;;5073616;28;20436;-76
2022/12/07 12:40:47;;;;;;;16.30;13.00;;;11.60;99.90;;;;;;5070208;28;20086;-77
2022/12/07 12:43:52;;;;;;;26.08;16.33;;;11.60;99.90;;;;;;5074353;28;20028;-76
2022/12/07 12:46:30;;;;;;;16.33;12.52;;;11.50;99.90;;;;;;5073345;28;20032;-76
2022/12/07 12:49:20;;;;;;;18.30;12.23;;;11.50;99.90;;;;;;5069616;28;20025;-76
2022/12/07 12:51:53;;;;;;;32.07;13.83;;;11.50;99.90;;;;;;5071538;28;20037;-76
2022/12/07 12:54:31;;;;;;;17.88;12.68;;;11.40;99.90;;;;;;5073283;28;20107;-77
2022/12/07 12:57:26;;;;;;;17.40;13.32;;;11.50;99.90;;;;;;5068037;28;20512;-76
2022/12/07 12:59:52;;;;;;;19.27;13.63;;;11.50;99.90;;;;;;5060293;28;20074;-76